createdAt,value
2018-05-13T00:01:23.017Z,7.33
2018-05-13T00:03:55.400Z,6.80
2018-05-13T00:06:22.951Z,5.10
2018-05-13T00:08:51.244Z,5.73
2018-05-13T00:11:18.786Z,7.60
2018-05-13T00:13:47.100Z,11.60
2018-05-13T00:16:14.615Z,6.33
2018-05-13T00:18:42.232Z,6.70
2018-05-13T00:21:09.757Z,5.23
2018-05-13T00:23:37.357Z,7.30
2018-05-13T00:26:04.885Z,5.07
2018-05-13T00:28:32.446Z,6.23
2018-05-13T00:31:00.749Z,6.90
2018-05-13T00:33:28.288Z,7.73
2018-05-13T00:35:55.903Z,6.60
2018-05-13T00:38:23.419Z,7.37
2018-05-13T00:40:51.749Z,7.60
2018-05-13T00:43:19.313Z,7.37
2018-05-13T00:45:46.871Z,5.90
2018-05-13T00:48:14.437Z,10.50
2018-05-13T00:50:42.059Z,7.00
2018-05-13T00:53:09.545Z,7.13
2018-05-13T00:55:37.825Z,8.33
2018-05-13T00:58:06.120Z,7.13
2018-05-13T01:00:33.632Z,8.30
2018-05-13T01:03:01.164Z,8.00
2018-05-13T01:05:28.687Z,8.30
2018-05-13T01:07:57.001Z,7.17
2018-05-13T01:10:24.525Z,7.17
2018-05-13T01:12:52.845Z,5.33
2018-05-13T01:15:20.361Z,8.60
2018-05-13T01:17:47.979Z,6.87
2018-05-13T01:20:15.508Z,8.37
2018-05-13T01:22:43.820Z,7.23
2018-05-13T01:25:11.384Z,6.90
2018-05-13T01:27:38.948Z,7.63
2018-05-13T01:30:06.479Z,6.00
2018-05-13T01:32:34.008Z,7.63
2018-05-13T01:35:01.540Z,6.40
2018-05-13T01:37:29.091Z,6.50
2018-05-13T01:39:56.624Z,6.63
2018-05-13T01:42:24.171Z,6.70
2018-05-13T01:44:51.700Z,7.27
2018-05-13T01:47:19.223Z,7.33
2018-05-13T01:49:46.774Z,10.27
2018-05-13T01:52:14.396Z,9.90
2018-05-13T01:54:41.955Z,7.57
2018-05-13T01:57:09.468Z,8.63
2018-05-13T01:59:37.002Z,8.07
2018-05-13T02:02:04.548Z,6.97
2018-05-13T02:04:32.100Z,10.93
2018-05-13T02:06:59.625Z,7.87
2018-05-13T02:09:27.931Z,10.90
2018-05-13T02:11:56.349Z,8.20
2018-05-13T02:14:23.909Z,7.53
2018-05-13T02:16:51.473Z,6.00
2018-05-13T02:19:19.036Z,7.53
2018-05-13T02:21:46.593Z,7.60
2018-05-13T02:24:14.129Z,7.00
2018-05-13T02:26:41.683Z,5.57
2018-05-13T02:29:09.209Z,5.50
2018-05-13T02:31:36.736Z,5.13
2018-05-13T02:34:05.106Z,4.97
2018-05-13T02:36:32.617Z,5.27
2018-05-13T02:39:00.160Z,7.30
2018-05-13T02:41:27.679Z,5.43
2018-05-13T02:43:55.233Z,5.97
2018-05-13T02:46:22.759Z,4.73
2018-05-13T02:48:50.276Z,5.87
2018-05-13T02:51:17.887Z,6.17
2018-05-13T02:53:45.463Z,3.57
2018-05-13T02:56:13.009Z,4.73
2018-05-13T02:58:40.536Z,7.30
2018-05-13T03:01:08.864Z,4.13
2018-05-13T03:03:36.427Z,5.93
2018-05-13T03:06:03.992Z,3.60
2018-05-13T03:08:31.558Z,4.47
2018-05-13T03:10:59.084Z,3.67
2018-05-13T03:13:26.616Z,3.50
2018-05-13T03:15:54.128Z,3.97
2018-05-13T03:18:22.426Z,3.40
2018-05-13T03:20:49.994Z,5.30
2018-05-13T03:23:17.558Z,2.97
2018-05-13T03:25:45.069Z,3.13
2018-05-13T03:28:12.686Z,4.63
2018-05-13T03:30:40.229Z,4.23
2018-05-13T03:33:08.637Z,3.00
2018-05-13T03:35:36.172Z,2.60
2018-05-13T03:38:04.479Z,3.03
2018-05-13T03:40:32.044Z,3.20
2018-05-13T03:42:59.581Z,3.00
2018-05-13T03:45:27.856Z,3.17
2018-05-13T03:47:56.164Z,4.37
2018-05-13T03:50:23.716Z,2.60
2018-05-13T03:52:52.016Z,3.53
2018-05-13T03:55:20.331Z,4.33
2018-05-13T03:57:47.838Z,3.53
2018-05-13T04:00:16.157Z,4.40
2018-05-13T04:02:43.667Z,6.50
2018-05-13T04:05:11.273Z,5.47
2018-05-13T04:07:59.573Z,3.70
2018-05-13T04:10:39.827Z,3.30
2018-05-13T04:13:20.015Z,4.27
2018-05-13T04:15:47.585Z,3.03
2018-05-13T04:18:15.099Z,3.97
2018-05-13T04:20:42.642Z,5.57
2018-05-13T04:23:10.185Z,3.57
2018-05-13T04:25:37.705Z,4.63
2018-05-13T04:28:06.021Z,4.20
2018-05-13T04:30:33.558Z,4.27
2018-05-13T04:33:01.963Z,4.03
2018-05-13T04:35:29.480Z,2.97
2018-05-13T04:37:58.503Z,3.33
2018-05-13T04:40:26.804Z,5.53
2018-05-13T04:42:54.350Z,2.33
2018-05-13T04:45:22.653Z,3.00
2018-05-13T04:47:50.170Z,2.70
2018-05-13T04:50:18.506Z,5.90
2018-05-13T04:52:46.062Z,4.27
2018-05-13T04:55:13.631Z,4.40
2018-05-13T04:57:41.196Z,4.60
2018-05-13T05:00:08.704Z,4.33
2018-05-13T05:02:36.286Z,5.20
2018-05-13T05:05:04.609Z,6.00
2018-05-13T05:07:32.270Z,6.33
2018-05-13T05:09:59.787Z,5.23
2018-05-13T05:12:27.320Z,7.87
2018-05-13T05:14:54.834Z,5.50
2018-05-13T05:17:23.143Z,4.43
2018-05-13T05:19:50.690Z,10.20
2018-05-13T05:22:18.273Z,4.97
2018-05-13T05:24:45.814Z,5.50
2018-05-13T05:27:14.114Z,5.10
2018-05-13T05:29:41.665Z,5.20
2018-05-13T05:32:09.243Z,5.67
2018-05-13T05:34:36.774Z,5.40
2018-05-13T05:37:05.075Z,4.23
2018-05-13T05:39:32.600Z,6.63
2018-05-13T05:42:00.245Z,9.67
2018-05-13T05:44:27.784Z,4.83
2018-05-13T05:46:55.324Z,5.53
2018-05-13T05:49:23.632Z,6.00
2018-05-13T05:51:51.192Z,5.27
2018-05-13T05:54:19.638Z,8.40
2018-05-13T05:56:47.208Z,5.30
2018-05-13T05:59:15.502Z,9.10
2018-05-13T06:01:43.796Z,5.93
2018-05-13T06:04:11.318Z,10.17
2018-05-13T06:06:38.855Z,5.50
2018-05-13T06:09:06.393Z,5.40
2018-05-13T06:11:33.915Z,6.53
2018-05-13T06:14:01.447Z,8.43
2018-05-13T06:16:28.978Z,6.50
2018-05-13T06:18:56.526Z,6.63
2018-05-13T06:21:24.841Z,5.53
2018-05-13T06:23:52.371Z,5.57
2018-05-13T06:26:20.690Z,5.73
2018-05-13T06:28:48.256Z,6.40
2018-05-13T06:31:15.919Z,6.60
2018-05-13T06:33:43.459Z,6.70
2018-05-13T06:36:11.775Z,6.00
2018-05-13T06:38:39.320Z,5.87
2018-05-13T06:41:06.883Z,10.20
2018-05-13T06:43:34.420Z,8.80
2018-05-13T06:46:02.835Z,6.47
2018-05-13T06:48:30.373Z,4.40
2018-05-13T06:50:58.684Z,6.00
2018-05-13T06:53:26.243Z,4.03
2018-05-13T06:55:53.765Z,6.77
2018-05-13T06:58:21.327Z,4.80
2018-05-13T07:00:48.941Z,5.30
2018-05-13T07:03:16.492Z,7.63
2018-05-13T07:05:44.019Z,4.30
2018-05-13T07:08:11.549Z,4.47
2018-05-13T07:10:39.091Z,4.40
2018-05-13T07:13:06.616Z,7.63
2018-05-13T07:15:34.222Z,10.03
2018-05-13T07:18:01.742Z,10.10
2018-05-13T07:20:29.303Z,5.67
2018-05-13T07:22:56.849Z,6.67
2018-05-13T07:25:24.382Z,6.20
2018-05-13T07:27:51.941Z,7.63
2018-05-13T07:30:19.460Z,7.07
2018-05-13T07:32:46.994Z,6.57
2018-05-13T07:35:14.539Z,6.50
2018-05-13T07:37:42.065Z,9.67
2018-05-13T07:40:10.387Z,9.30
2018-05-13T07:42:37.923Z,11.03
2018-05-13T07:45:06.330Z,7.70
2018-05-13T07:47:33.902Z,10.03
2018-05-13T07:50:01.434Z,13.70
2018-05-13T07:52:29.740Z,10.50
2018-05-13T07:54:57.302Z,8.20
2018-05-13T07:57:24.868Z,9.03
2018-05-13T07:59:52.435Z,12.83
2018-05-13T08:02:19.967Z,8.00
2018-05-13T08:04:48.380Z,8.87
2018-05-13T08:07:15.915Z,9.70
2018-05-13T08:09:44.332Z,7.80
2018-05-13T08:12:11.874Z,7.60
2018-05-13T08:14:40.173Z,7.00
2018-05-13T08:17:07.708Z,10.67
2018-05-13T08:19:36.019Z,9.20
2018-05-13T08:22:03.585Z,9.93
2018-05-13T08:24:31.136Z,9.47
2018-05-13T08:26:58.717Z,10.00
2018-05-13T08:29:26.298Z,8.43
2018-05-13T08:31:53.867Z,8.17
2018-05-13T08:34:21.510Z,8.80
2018-05-13T08:36:49.050Z,10.63
2018-05-13T08:39:17.397Z,10.47
2018-05-13T08:41:44.947Z,12.63
2018-05-13T08:44:12.584Z,9.30
2018-05-13T08:46:40.150Z,10.20
2018-05-13T08:49:07.664Z,9.40
2018-05-13T08:51:35.217Z,9.07
2018-05-13T08:54:02.772Z,7.20
2018-05-13T08:56:30.410Z,9.53
2018-05-13T08:58:57.957Z,10.53
2018-05-13T09:01:26.259Z,10.63
2018-05-13T09:03:53.819Z,9.43
2018-05-13T09:06:21.365Z,15.70
2018-05-13T09:08:49.717Z,8.47
2018-05-13T09:11:17.241Z,7.57
2018-05-13T09:13:44.802Z,8.10
2018-05-13T09:16:12.358Z,7.83
2018-05-13T09:18:39.890Z,6.60
2018-05-13T09:21:08.201Z,7.60
2018-05-13T09:23:35.869Z,11.90
2018-05-13T09:26:03.388Z,10.23
2018-05-13T09:28:30.918Z,11.10
2018-05-13T09:30:58.479Z,8.33
2018-05-13T09:33:26.028Z,7.23
2018-05-13T09:35:53.577Z,6.27
2018-05-13T09:38:21.110Z,8.77
2018-05-13T09:40:48.654Z,7.93
2018-05-13T09:43:16.204Z,6.73
2018-05-13T09:45:43.822Z,11.60
2018-05-13T09:48:11.315Z,7.83
2018-05-13T09:50:38.849Z,7.87
2018-05-13T09:53:07.194Z,7.67
2018-05-13T09:55:34.722Z,6.87
2018-05-13T09:58:02.276Z,15.63
2018-05-13T10:00:29.822Z,7.50
2018-05-13T10:02:58.158Z,7.10
2018-05-13T10:05:25.694Z,6.87
2018-05-13T10:07:53.235Z,6.10
2018-05-13T10:10:21.569Z,7.53
2018-05-13T10:12:49.093Z,4.20
2018-05-13T10:15:16.628Z,6.07
2018-05-13T10:17:44.144Z,5.40
2018-05-13T10:20:11.701Z,6.03
2018-05-13T10:22:39.247Z,7.00
2018-05-13T10:25:06.930Z,5.30
2018-05-13T10:27:34.453Z,5.80
2018-05-13T10:30:02.749Z,5.30
2018-05-13T10:32:31.065Z,7.20
2018-05-13T10:34:58.606Z,4.73
2018-05-13T10:37:26.159Z,7.00
2018-05-13T10:39:54.465Z,4.10
2018-05-13T10:42:22.019Z,3.73
2018-05-13T10:44:49.543Z,5.43
2018-05-13T10:47:17.063Z,5.60
2018-05-13T10:49:44.641Z,7.30
2018-05-13T10:52:12.186Z,4.80
2018-05-13T10:54:39.773Z,7.40
2018-05-13T10:57:07.290Z,8.27
2018-05-13T10:59:35.610Z,5.73
2018-05-13T11:02:03.266Z,4.60
2018-05-13T11:04:30.822Z,5.13
2018-05-13T11:06:58.382Z,5.73
2018-05-13T11:09:25.905Z,4.33
2018-05-13T11:11:53.521Z,4.90
2018-05-13T11:14:21.077Z,8.13
2018-05-13T11:16:48.609Z,3.67
2018-05-13T11:19:16.149Z,4.47
2018-05-13T11:21:43.793Z,5.10
2018-05-13T11:24:11.311Z,3.20
2018-05-13T11:26:39.642Z,5.53
2018-05-13T11:29:07.272Z,4.70
2018-05-13T11:31:34.781Z,2.90
2018-05-13T11:34:02.305Z,4.00
2018-05-13T11:36:29.870Z,4.73
2018-05-13T11:38:57.452Z,4.00
2018-05-13T11:41:24.975Z,4.40
2018-05-13T11:43:52.532Z,11.80
2018-05-13T11:46:20.145Z,3.60
2018-05-13T11:48:47.701Z,2.47
2018-05-13T11:51:15.324Z,2.50
2018-05-13T11:53:42.839Z,2.50
2018-05-13T11:56:10.375Z,3.67
2018-05-13T11:58:38.663Z,2.50
2018-05-13T12:01:06.221Z,3.20
2018-05-13T12:03:34.529Z,2.00
2018-05-13T12:06:02.135Z,2.10
2018-05-13T12:08:29.689Z,1.73
2018-05-13T12:10:57.283Z,1.80
2018-05-13T12:13:24.802Z,1.90
2018-05-13T12:15:52.346Z,2.00
2018-05-13T12:18:20.017Z,4.00
2018-05-13T12:20:47.567Z,2.27
2018-05-13T12:23:15.130Z,1.97
2018-05-13T12:25:43.468Z,7.57
2018-05-13T12:28:11.031Z,2.63
2018-05-13T12:30:38.578Z,3.33
2018-05-13T12:33:06.122Z,2.63
2018-05-13T12:35:33.649Z,3.40
2018-05-13T12:38:01.986Z,2.00
2018-05-13T12:40:29.560Z,2.33
2018-05-13T12:42:57.201Z,2.17
2018-05-13T12:45:24.748Z,2.20
2018-05-13T12:47:52.289Z,2.00
2018-05-13T12:50:20.717Z,3.03
2018-05-13T12:52:48.239Z,2.03
2018-05-13T12:55:16.551Z,2.13
2018-05-13T12:57:44.123Z,3.40
2018-05-13T13:00:11.655Z,2.10
2018-05-13T13:02:39.967Z,2.37
2018-05-13T13:05:07.502Z,9.60
2018-05-13T13:07:35.873Z,2.33
2018-05-13T13:10:03.381Z,2.10
2018-05-13T13:12:30.944Z,2.30
2018-05-13T13:14:58.479Z,2.30
2018-05-13T13:17:26.792Z,2.53
2018-05-13T13:19:54.412Z,2.03
2018-05-13T13:22:21.930Z,2.87
2018-05-13T13:24:49.587Z,2.80
2018-05-13T13:27:17.147Z,2.27
2018-05-13T13:29:44.683Z,4.33
2018-05-13T13:32:12.987Z,2.80
2018-05-13T13:34:40.558Z,3.07
2018-05-13T13:37:08.127Z,3.50
2018-05-13T13:39:35.663Z,2.47
2018-05-13T13:42:03.965Z,2.73
2018-05-13T13:44:31.540Z,2.23
2018-05-13T13:46:59.101Z,2.23
2018-05-13T13:49:26.660Z,2.43
2018-05-13T13:51:54.241Z,10.63
2018-05-13T13:54:21.792Z,5.00
2018-05-13T13:56:49.358Z,2.50
2018-05-13T13:59:16.916Z,4.63
2018-05-13T14:01:44.446Z,3.10
2018-05-13T14:04:12.748Z,4.20
2018-05-13T14:06:41.152Z,2.47
2018-05-13T14:09:08.715Z,2.20
2018-05-13T14:11:36.250Z,5.80
2018-05-13T14:14:04.544Z,8.00
2018-05-13T14:16:32.083Z,2.53
2018-05-13T14:18:59.615Z,2.20
2018-05-13T14:21:27.154Z,2.47
2018-05-13T14:23:54.786Z,3.90
2018-05-13T14:26:22.264Z,2.17
2018-05-13T14:28:50.557Z,3.37
2018-05-13T14:31:18.106Z,2.77
2018-05-13T14:33:46.391Z,2.70
2018-05-13T14:36:13.918Z,5.40
2018-05-13T14:38:41.460Z,4.10
2018-05-13T14:41:09.146Z,7.67
2018-05-13T14:43:36.568Z,1.93
2018-05-13T14:46:04.088Z,2.07
2018-05-13T14:48:31.639Z,2.17
2018-05-13T14:50:59.168Z,1.83
2018-05-13T14:53:26.722Z,6.53
2018-05-13T14:55:54.238Z,5.20
2018-05-13T14:58:21.783Z,2.10
2018-05-13T15:00:49.338Z,1.30
2018-05-13T15:03:16.884Z,2.10
2018-05-13T15:05:44.421Z,2.07
2018-05-13T15:08:12.711Z,2.03
2018-05-13T15:10:40.251Z,1.60
2018-05-13T15:13:08.565Z,1.50
2018-05-13T15:15:36.114Z,1.90
2018-05-13T15:18:04.429Z,2.13
2018-05-13T15:20:31.994Z,1.97
2018-05-13T15:22:59.935Z,1.90
2018-05-13T15:25:27.469Z,5.63
2018-05-13T15:27:55.813Z,3.47
2018-05-13T15:30:23.363Z,1.97
2018-05-13T15:32:50.932Z,3.27
2018-05-13T15:35:18.594Z,2.30
2018-05-13T15:37:46.154Z,2.03
2018-05-13T15:40:13.686Z,2.40
2018-05-13T15:42:42.099Z,2.70
2018-05-13T15:45:09.570Z,1.83
2018-05-13T15:47:37.097Z,1.97
2018-05-13T15:50:05.412Z,2.07
2018-05-13T15:52:32.938Z,1.70
2018-05-13T15:55:00.558Z,1.77
2018-05-13T15:57:28.013Z,1.60
2018-05-13T15:59:55.669Z,2.77
2018-05-13T16:02:23.240Z,1.90
2018-05-13T16:04:50.799Z,5.23
2018-05-13T16:07:18.321Z,1.83
2018-05-13T16:09:46.662Z,4.30
2018-05-13T16:12:14.257Z,4.07
2018-05-13T16:14:41.878Z,4.00
2018-05-13T16:17:09.439Z,3.50
2018-05-13T16:19:36.967Z,3.73
2018-05-13T16:22:04.512Z,4.03
2018-05-13T16:24:32.055Z,5.70
2018-05-13T16:26:59.630Z,10.00
2018-05-13T16:29:27.177Z,4.37
2018-05-13T16:31:54.706Z,7.90
2018-05-13T16:34:23.043Z,4.33
2018-05-13T16:36:50.679Z,6.50
2018-05-13T16:39:18.341Z,5.77
2018-05-13T16:41:45.883Z,6.10
2018-05-13T16:44:13.417Z,6.70
2018-05-13T16:46:40.975Z,5.57
2018-05-13T16:49:08.599Z,4.60
2018-05-13T16:51:36.168Z,6.20
2018-05-13T16:54:03.837Z,5.37
2018-05-13T16:56:31.391Z,5.20
2018-05-13T16:58:58.964Z,2.97
2018-05-13T17:01:26.509Z,8.17
2018-05-13T17:03:54.048Z,7.10
2018-05-13T17:06:21.609Z,6.90
2018-05-13T17:08:49.922Z,2.43
2018-05-13T17:11:17.553Z,4.00
2018-05-13T17:13:45.177Z,4.60
2018-05-13T17:16:12.773Z,2.40
2018-05-13T17:18:40.363Z,3.23
2018-05-13T17:21:08.711Z,2.57
2018-05-13T17:23:36.420Z,2.40
2018-05-13T17:26:04.399Z,3.60
2018-05-13T17:28:32.093Z,4.10
2018-05-13T17:30:59.678Z,3.70
2018-05-13T17:33:27.332Z,3.80
2018-05-13T17:35:54.990Z,5.00
2018-05-13T17:38:22.655Z,7.80
2018-05-13T17:40:50.323Z,5.27
2018-05-13T17:43:17.882Z,4.90
2018-05-13T17:45:45.559Z,6.20
2018-05-13T17:48:13.224Z,4.90
2018-05-13T17:50:40.902Z,4.53
2018-05-13T17:53:08.554Z,4.90
2018-05-13T17:55:36.218Z,3.17
2018-05-13T17:58:03.899Z,3.87
2018-05-13T18:00:31.558Z,7.03
2018-05-13T18:02:59.315Z,6.83
2018-05-13T18:05:27.573Z,5.77
2018-05-13T18:07:55.988Z,3.10
2018-05-13T18:10:23.801Z,6.67
2018-05-13T18:12:51.416Z,10.67
2018-05-13T18:15:19.306Z,8.93
2018-05-13T18:17:47.074Z,5.60
2018-05-13T18:20:16.598Z,12.13
2018-05-13T18:22:44.219Z,3.90
2018-05-13T18:25:12.717Z,9.50
2018-05-13T18:27:40.393Z,4.87
2018-05-13T18:30:07.970Z,3.60
2018-05-13T18:32:35.747Z,5.00
2018-05-13T18:35:03.357Z,6.23
2018-05-13T18:37:32.106Z,9.93
2018-05-13T18:39:59.748Z,6.37
2018-05-13T18:42:27.428Z,3.20
2018-05-13T18:44:55.084Z,5.23
2018-05-13T18:47:22.751Z,7.50
2018-05-13T18:49:50.633Z,5.50
2018-05-13T18:52:18.400Z,5.07
2018-05-13T18:54:47.305Z,7.60
2018-05-13T18:57:15.203Z,10.57
2018-05-13T18:59:43.048Z,5.53
2018-05-13T19:02:10.916Z,6.57
2018-05-13T19:04:38.530Z,3.90
2018-05-13T19:07:06.340Z,3.80
2018-05-13T19:09:34.118Z,14.80
2018-05-13T19:12:01.962Z,8.10
2018-05-13T19:14:29.663Z,7.87
2018-05-13T19:16:57.421Z,6.17
2018-05-13T19:19:25.319Z,3.80
2018-05-13T19:21:52.980Z,3.90
2018-05-13T19:24:20.831Z,6.33
2018-05-13T19:26:48.504Z,8.50
2018-05-13T19:29:16.167Z,4.90
2018-05-13T19:31:43.829Z,8.93
2018-05-13T19:34:11.444Z,7.13
2018-05-13T19:36:40.070Z,8.00
2018-05-13T19:39:07.857Z,6.30
2018-05-13T19:41:35.627Z,10.73
2018-05-13T19:44:04.308Z,6.10
2018-05-13T19:46:32.947Z,5.20
2018-05-13T19:49:01.436Z,5.80
2018-05-13T19:51:29.162Z,7.10
2018-05-13T19:53:56.838Z,3.73
2018-05-13T19:56:25.311Z,7.20
2018-05-13T19:58:52.976Z,8.53
2018-05-13T20:01:20.745Z,6.37
2018-05-13T20:03:48.522Z,7.47
2018-05-13T20:06:16.103Z,4.87
2018-05-13T20:08:43.746Z,4.53
2018-05-13T20:11:11.405Z,5.33
2018-05-13T20:13:39.075Z,5.13
2018-05-13T20:16:06.750Z,10.23
2018-05-13T20:18:34.418Z,5.30
2018-05-13T20:21:02.076Z,8.00
2018-05-13T20:23:29.835Z,6.57
2018-05-13T20:25:57.311Z,6.63
2018-05-13T20:28:24.876Z,9.50
2018-05-13T20:30:52.435Z,5.63
2018-05-13T20:33:20.005Z,10.63
2018-05-13T20:35:47.586Z,5.13
2018-05-13T20:38:15.118Z,7.37
2018-05-13T20:40:42.798Z,6.77
2018-05-13T20:43:10.464Z,7.07
2018-05-13T20:45:38.033Z,13.10
2018-05-13T20:48:05.569Z,6.67
2018-05-13T20:50:33.977Z,4.57
2018-05-13T20:53:01.535Z,6.50
2018-05-13T20:55:29.056Z,6.47
2018-05-13T20:57:56.677Z,12.73
2018-05-13T21:00:24.931Z,7.07
2018-05-13T21:02:53.289Z,6.40
2018-05-13T21:05:20.868Z,6.10
2018-05-13T21:07:48.381Z,10.40
2018-05-13T21:10:15.979Z,8.53
2018-05-13T21:12:43.594Z,8.57
2018-05-13T21:15:11.165Z,4.70
2018-05-13T21:17:38.690Z,7.60
2018-05-13T21:20:06.994Z,6.80
2018-05-13T21:22:34.571Z,7.27
2018-05-13T21:25:02.143Z,9.53
2018-05-13T21:27:29.804Z,7.80
2018-05-13T21:29:59.056Z,6.83
2018-05-13T21:32:27.374Z,6.00
2018-05-13T21:34:54.897Z,7.27
2018-05-13T21:37:22.444Z,6.80
2018-05-13T21:39:50.078Z,14.43
2018-05-13T21:42:17.620Z,9.40
2018-05-13T21:44:46.028Z,15.40
2018-05-13T21:47:13.665Z,10.27
2018-05-13T21:49:41.168Z,8.67
2018-05-13T21:52:08.696Z,7.47
2018-05-13T21:54:37.053Z,9.07
2018-05-13T21:57:04.564Z,10.10
2018-05-13T21:59:32.130Z,8.47
2018-05-13T22:01:59.707Z,6.70
2018-05-13T22:04:27.237Z,7.53
2018-05-13T22:06:55.641Z,6.70
2018-05-13T22:09:23.169Z,8.90
2018-05-13T22:11:50.697Z,9.27
2018-05-13T22:14:18.245Z,13.23
2018-05-13T22:16:45.764Z,14.27
2018-05-13T22:19:14.085Z,9.70
2018-05-13T22:21:41.613Z,11.27
2018-05-13T22:24:09.926Z,18.70
2018-05-13T22:26:37.460Z,12.33
2018-05-13T22:29:05.790Z,14.10
2018-05-13T22:31:33.320Z,13.70
2018-05-13T22:34:01.592Z,14.47
2018-05-13T22:36:30.069Z,15.57
2018-05-13T22:38:57.547Z,12.73
2018-05-13T22:41:25.231Z,12.70
2018-05-13T22:43:52.760Z,10.43
2018-05-13T22:46:21.366Z,9.30
2018-05-13T22:48:49.648Z,7.63
2018-05-13T22:51:17.942Z,8.63
2018-05-13T22:53:45.510Z,9.83
2018-05-13T22:56:13.038Z,7.87
2018-05-13T22:58:41.352Z,10.20
2018-05-13T23:01:08.922Z,14.60
2018-05-13T23:03:36.506Z,12.57
2018-05-13T23:06:04.778Z,11.90
2018-05-13T23:08:32.328Z,8.47
2018-05-13T23:10:59.874Z,8.90
2018-05-13T23:13:28.177Z,9.70
2018-05-13T23:15:55.701Z,11.60
2018-05-13T23:18:23.250Z,11.30
2018-05-13T23:20:50.777Z,10.50
2018-05-13T23:23:18.433Z,17.77
2018-05-13T23:25:45.955Z,8.73
2018-05-13T23:28:13.514Z,10.30
2018-05-13T23:30:41.052Z,9.53
2018-05-13T23:33:08.692Z,10.80
2018-05-13T23:35:36.258Z,9.83
2018-05-13T23:38:03.790Z,9.67
2018-05-13T23:40:32.101Z,14.13
2018-05-13T23:42:59.634Z,9.47
2018-05-13T23:45:27.951Z,9.07
2018-05-13T23:47:55.463Z,8.30
2018-05-13T23:50:24.525Z,9.03
2018-05-13T23:52:52.071Z,11.23
2018-05-13T23:55:19.589Z,8.43
2018-05-13T23:57:47.204Z,9.53
